Time;durP1;ratioP1;P1;durP2;ratioP2;P2;SDS_P1;SDS_P2;PMS_P1;PMS_P2;Temp;Humidity;BMP_temperature;BMP_pressure;BME280_temperature;BME280_humidity;BME280_pressure;Samples;Min_cycle;Max_cycle;Signal;HPM_P1;HPM_P2
2021/12/27 00:00:42;;;;;;;43.50;22.80;;;-4.90;99.90;;;;;;5093063;28;20208;-71
2021/12/27 00:03:10;;;;;;;40.87;20.67;;;-4.90;99.90;;;;;;5091076;28;20211;-71
2021/12/27 00:05:37;;;;;;;46.47;22.87;;;-4.90;99.90;;;;;;5093785;28;20204;-70
2021/12/27 00:08:05;;;;;;;47.53;23.43;;;-4.90;99.90;;;;;;5091377;28;20225;-70
2021/12/27 00:10:32;;;;;;;42.33;22.53;;;-4.90;99.90;;;;;;5090438;28;20216;-70
2021/12/27 00:12:59;;;;;;;42.30;23.30;;;-4.80;99.90;;;;;;5092743;28;20248;-69
2021/12/27 00:15:27;;;;;;;42.20;22.40;;;-4.90;99.90;;;;;;5092795;28;20653;-69
2021/12/27 00:17:54;;;;;;;41.37;21.13;;;-4.90;99.90;;;;;;5092689;28;20295;-70
2021/12/27 00:20:22;;;;;;;51.80;23.63;;;-4.90;99.90;;;;;;5106439;28;20204;-70
2021/12/27 00:22:50;;;;;;;39.93;19.77;;;-4.80;99.90;;;;;;5092496;28;20623;-71
2021/12/27 00:25:18;;;;;;;45.20;22.13;;;-4.80;99.90;;;;;;5092787;28;20208;-70
2021/12/27 00:27:46;;;;;;;45.10;23.30;;;-4.90;99.90;;;;;;5092022;28;20240;-69
2021/12/27 00:30:15;;;;;;;46.63;23.07;;;-4.90;99.90;;;;;;5092759;28;20193;-70
2021/12/27 00:32:43;;;;;;;47.87;24.10;;;-4.90;99.90;;;;;;5092320;28;20201;-70
2021/12/27 00:35:13;;;;;;;46.00;24.73;;;-4.90;99.90;;;;;;5092254;28;20204;-71
2021/12/27 00:37:40;;;;;;;46.93;24.00;;;-4.90;99.90;;;;;;5092085;28;20561;-70
2021/12/27 00:40:09;;;;;;;45.00;23.17;;;-4.90;99.90;;;;;;5092915;28;20204;-70
2021/12/27 00:42:38;;;;;;;50.30;23.93;;;-4.90;99.90;;;;;;5091846;28;20205;-70
2021/12/27 00:45:06;;;;;;;49.23;24.93;;;-4.90;99.90;;;;;;5097612;28;20209;-70
2021/12/27 00:47:33;;;;;;;52.40;24.20;;;-4.90;99.90;;;;;;5091988;28;20225;-71
2021/12/27 00:50:00;;;;;;;48.20;23.87;;;-4.90;99.90;;;;;;5091958;28;20209;-70
2021/12/27 00:52:27;;;;;;;45.10;24.00;;;-4.90;99.90;;;;;;5091425;28;20215;-70
2021/12/27 00:54:54;;;;;;;46.03;23.80;;;-4.90;99.90;;;;;;5091504;28;20476;-71
2021/12/27 00:57:21;;;;;;;53.10;25.63;;;-5.00;99.90;;;;;;5091242;28;20223;-70
2021/12/27 00:59:49;;;;;;;46.47;25.43;;;-4.90;99.90;;;;;;5097040;28;20580;-70
2021/12/27 01:02:16;;;;;;;48.20;25.70;;;-5.00;99.90;;;;;;5091983;28;20207;-69
2021/12/27 01:04:43;;;;;;;52.63;25.50;;;-5.00;99.90;;;;;;5092228;28;20222;-71
2021/12/27 01:07:10;;;;;;;52.23;25.33;;;-5.00;99.90;;;;;;5091625;28;20201;-70
2021/12/27 01:09:51;;;;;;;50.17;25.27;;;-5.00;99.90;;;;;;5091679;28;20215;-71
2021/12/27 01:12:30;;;;;;;50.67;25.00;;;-5.00;99.90;;;;;;5091903;28;20203;-70
2021/12/27 01:15:21;;;;;;;52.60;26.13;;;-5.00;99.90;;;;;;5101922;28;20508;-70
2021/12/27 01:17:51;;;;;;;56.07;26.10;;;-5.00;99.90;;;;;;5084247;28;20273;-71
2021/12/27 01:20:20;;;;;;;56.20;26.50;;;-5.10;99.90;;;;;;5095490;28;20617;-71
2021/12/27 01:22:47;;;;;;;49.60;25.23;;;-5.10;99.90;;;;;;5096285;28;20212;-71
2021/12/27 01:25:14;;;;;;;49.87;25.90;;;-5.10;99.90;;;;;;5095607;28;20654;-70
2021/12/27 01:27:42;;;;;;;48.93;23.73;;;-5.10;99.90;;;;;;5096258;28;20240;-71
2021/12/27 01:30:15;;;;;;;50.67;25.60;;;-5.10;99.90;;;;;;5096564;28;20207;-72
2021/12/27 01:32:46;;;;;;;55.63;27.70;;;-5.10;99.90;;;;;;5095907;28;20209;-72
2021/12/27 01:35:13;;;;;;;49.10;26.53;;;-5.10;99.90;;;;;;5096800;28;20291;-71
2021/12/27 01:37:41;;;;;;;51.63;26.03;;;-5.20;99.90;;;;;;5097001;28;20295;-70
2021/12/27 01:40:10;;;;;;;50.27;25.67;;;-4.90;99.90;;;;;;5096125;28;20205;-71
2021/12/27 01:42:37;;;;;;;48.23;24.93;;;-5.20;99.90;;;;;;5095749;28;20296;-72
2021/12/27 01:45:05;;;;;;;55.67;27.77;;;-5.20;99.90;;;;;;5095871;28;20311;-71
2021/12/27 01:47:33;;;;;;;58.00;29.83;;;-5.20;99.90;;;;;;5096041;28;20305;-71
2021/12/27 01:50:00;;;;;;;61.40;30.73;;;-5.20;99.90;;;;;;5081977;28;20296;-71
2021/12/27 01:52:27;;;;;;;67.10;29.73;;;-5.20;99.90;;;;;;5077431;28;20253;-71
2021/12/27 01:54:54;;;;;;;61.20;29.80;;;-5.20;99.90;;;;;;5095998;28;20313;-70
2021/12/27 01:57:21;;;;;;;56.30;29.00;;;-5.30;99.90;;;;;;5095468;28;20303;-70
2021/12/27 01:59:48;;;;;;;62.97;28.83;;;-5.30;99.90;;;;;;5094252;28;20296;-70
2021/12/27 02:02:15;;;;;;;64.37;29.87;;;-5.30;99.90;;;;;;5095982;28;20690;-70
2021/12/27 02:04:43;;;;;;;63.67;30.03;;;-5.30;99.90;;;;;;5095610;28;20210;-70
2021/12/27 02:07:10;;;;;;;67.97;32.27;;;-5.30;99.90;;;;;;5108754;28;20206;-70
2021/12/27 02:09:47;;;;;;;66.07;30.20;;;-5.40;99.90;;;;;;5095284;28;20220;-70
2021/12/27 02:12:14;;;;;;;65.70;31.77;;;-5.40;99.90;;;;;;5096089;28;20200;-70
2021/12/27 02:14:41;;;;;;;68.73;32.87;;;-5.40;99.90;;;;;;5096548;28;20207;-72
2021/12/27 02:17:08;;;;;;;70.70;32.83;;;-5.40;99.90;;;;;;5096264;28;20205;-70
2021/12/27 02:19:36;;;;;;;67.03;32.07;;;-5.40;99.90;;;;;;5095157;28;20236;-71
2021/12/27 02:22:04;;;;;;;62.37;32.60;;;-5.50;99.90;;;;;;5095297;28;20211;-70
2021/12/27 02:24:33;;;;;;;68.80;32.03;;;-5.50;99.90;;;;;;5100267;28;20214;-69
2021/12/27 02:26:59;;;;;;;67.80;31.80;;;-5.50;99.90;;;;;;5100145;28;20240;-70
2021/12/27 02:29:26;;;;;;;69.17;31.70;;;-5.50;99.90;;;;;;5094614;28;20613;-70
2021/12/27 02:31:53;;;;;;;73.60;33.00;;;-5.50;99.90;;;;;;5095344;28;20220;-71
2021/12/27 02:34:20;;;;;;;65.37;31.90;;;-5.50;99.90;;;;;;5095167;28;20311;-70
2021/12/27 02:36:49;;;;;;;70.03;31.53;;;-5.50;99.90;;;;;;5095426;28;20212;-71
2021/12/27 02:39:17;;;;;;;65.23;31.70;;;-5.50;99.90;;;;;;5098567;28;20192;-71
2021/12/27 02:41:44;;;;;;;68.33;32.93;;;-5.50;99.90;;;;;;5104812;28;20583;-71
2021/12/27 02:44:11;;;;;;;68.03;31.27;;;-5.60;99.90;;;;;;5080218;28;20209;-71
2021/12/27 02:46:38;;;;;;;66.23;32.53;;;-5.60;99.90;;;;;;5093807;28;20205;-70
2021/12/27 02:49:05;;;;;;;62.43;31.20;;;-5.60;99.90;;;;;;5094484;28;20221;-71
2021/12/27 02:51:32;;;;;;;67.17;30.60;;;-5.60;99.90;;;;;;5094643;28;20270;-71
2021/12/27 02:53:59;;;;;;;64.27;29.50;;;-5.60;99.90;;;;;;5098685;28;20214;-70
2021/12/27 02:56:29;;;;;;;57.13;29.80;;;-5.60;99.90;;;;;;5099261;28;20224;-70
2021/12/27 02:58:57;;;;;;;62.10;30.27;;;-5.70;99.90;;;;;;5095313;28;20205;-69
2021/12/27 03:01:28;;;;;;;61.10;28.70;;;-5.70;99.90;;;;;;5094815;28;20204;-70
2021/12/27 03:03:56;;;;;;;57.23;28.93;;;-5.70;99.90;;;;;;5093953;28;20258;-70
2021/12/27 03:06:23;;;;;;;62.70;28.23;;;-5.70;99.90;;;;;;5094206;28;20201;-70
2021/12/27 03:08:51;;;;;;;59.83;28.27;;;-5.80;99.90;;;;;;5094483;28;20591;-70
2021/12/27 03:11:18;;;;;;;59.13;29.60;;;-5.70;99.90;;;;;;5086052;28;20212;-71
2021/12/27 03:13:50;;;;;;;59.67;29.60;;;-5.70;99.90;;;;;;5094274;28;20211;-70
2021/12/27 03:16:19;;;;;;;61.87;29.20;;;-5.80;99.90;;;;;;5094120;28;20315;-70
2021/12/27 03:18:50;;;;;;;56.93;28.33;;;-5.70;99.90;;;;;;5094083;28;20227;-70
2021/12/27 03:21:17;;;;;;;66.87;30.40;;;-5.70;99.90;;;;;;5094413;28;20212;-70
2021/12/27 03:23:45;;;;;;;62.00;30.07;;;-5.70;99.90;;;;;;5093748;28;20205;-70
2021/12/27 03:26:12;;;;;;;64.30;30.03;;;-5.70;99.90;;;;;;5084288;28;20286;-70
2021/12/27 03:28:40;;;;;;;60.50;28.80;;;-5.60;99.90;;;;;;5093749;28;20248;-71
2021/12/27 03:31:10;;;;;;;56.50;27.87;;;-5.60;99.90;;;;;;5094545;28;20203;-71
2021/12/27 03:33:37;;;;;;;55.77;27.37;;;-5.60;99.90;;;;;;5094041;28;20248;-71
2021/12/27 03:36:07;;;;;;;58.00;28.30;;;-5.60;99.90;;;;;;5093062;28;20239;-72
2021/12/27 03:38:37;;;;;;;57.77;29.00;;;-5.60;99.90;;;;;;5095655;28;20251;-72
2021/12/27 03:41:06;;;;;;;59.27;29.03;;;-5.60;99.90;;;;;;5110081;28;20665;-71
2021/12/27 03:43:33;;;;;;;62.43;28.27;;;-5.50;99.90;;;;;;5094324;28;20232;-70
2021/12/27 03:46:00;;;;;;;52.33;26.30;;;-5.50;99.90;;;;;;5094257;28;20313;-70
2021/12/27 03:48:29;;;;;;;46.33;22.93;;;-5.50;99.90;;;;;;5093502;28;20265;-71
2021/12/27 03:50:59;;;;;;;46.13;22.70;;;-5.50;99.90;;;;;;5093637;28;20205;-70
2021/12/27 03:53:26;;;;;;;50.30;24.37;;;-5.50;99.90;;;;;;5093748;28;20204;-70
2021/12/27 03:55:53;;;;;;;47.17;23.20;;;-5.60;99.90;;;;;;5093591;28;20212;-71
2021/12/27 03:58:26;;;;;;;40.50;21.23;;;-5.60;99.90;;;;;;5093967;28;20224;-70
2021/12/27 04:01:03;;;;;;;50.27;24.27;;;-5.60;99.90;;;;;;5093693;28;20209;-70
2021/12/27 04:03:32;;;;;;;50.33;21.93;;;-5.60;99.90;;;;;;5093824;28;20207;-71
2021/12/27 04:06:00;;;;;;;49.43;22.57;;;-5.60;99.90;;;;;;5093675;28;20214;-71
2021/12/27 04:08:27;;;;;;;42.37;21.87;;;-5.70;99.90;;;;;;5093593;28;20920;-70
2021/12/27 04:10:55;;;;;;;48.70;22.57;;;-5.70;99.90;;;;;;5105356;28;20239;-70
2021/12/27 04:13:23;;;;;;;51.63;23.20;;;-5.20;99.90;;;;;;5093008;28;20220;-70
2021/12/27 04:15:50;;;;;;;68.47;26.57;;;-5.70;99.90;;;;;;5093444;28;20296;-71
2021/12/27 04:18:21;;;;;;;59.07;26.43;;;-5.70;99.90;;;;;;5094154;28;20207;-71
2021/12/27 04:20:50;;;;;;;58.00;25.53;;;-5.70;99.90;;;;;;5093944;28;20205;-71
2021/12/27 04:23:17;;;;;;;55.37;25.20;;;-5.80;99.90;;;;;;5093434;28;20211;-70
2021/12/27 04:25:44;;;;;;;60.53;26.37;;;-5.80;99.90;;;;;;5094063;28;20876;-71
2021/12/27 04:28:11;;;;;;;51.47;26.40;;;-5.80;99.90;;;;;;5092118;28;20236;-70
2021/12/27 04:30:38;;;;;;;60.40;27.93;;;-5.80;99.90;;;;;;5092261;28;20583;-71
2021/12/27 04:33:05;;;;;;;64.20;27.17;;;-5.80;99.90;;;;;;5093902;28;20235;-71
2021/12/27 04:35:34;;;;;;;55.80;28.13;;;-5.80;99.90;;;;;;5093290;28;20235;-71
2021/12/27 04:38:03;;;;;;;65.13;28.73;;;-5.80;99.90;;;;;;5093466;28;20205;-70
2021/12/27 04:40:33;;;;;;;61.37;29.50;;;-5.90;99.90;;;;;;5093801;28;20251;-71
2021/12/27 04:43:04;;;;;;;70.20;30.37;;;-5.90;99.90;;;;;;5093404;28;20250;-70
2021/12/27 04:45:31;;;;;;;66.07;30.27;;;-5.90;99.90;;;;;;5093341;28;20215;-70
2021/12/27 04:47:58;;;;;;;68.70;30.83;;;-5.90;99.90;;;;;;5093175;28;20224;-71
2021/12/27 04:50:25;;;;;;;64.73;30.23;;;-6.00;99.90;;;;;;5092414;28;20258;-71
2021/12/27 04:52:53;;;;;;;63.80;29.23;;;-6.00;99.90;;;;;;5093082;28;20692;-71
2021/12/27 04:55:21;;;;;;;72.23;29.70;;;-6.10;99.90;;;;;;5092875;28;21105;-70
2021/12/27 04:57:48;;;;;;;64.90;29.63;;;-6.10;99.90;;;;;;5092602;28;20317;-70
2021/12/27 05:00:16;;;;;;;71.03;31.10;;;-6.20;99.90;;;;;;5093017;28;20295;-70
2021/12/27 05:02:43;;;;;;;60.53;29.20;;;-6.20;99.90;;;;;;5092549;28;20319;-70
2021/12/27 05:05:10;;;;;;;69.13;30.03;;;-6.20;99.90;;;;;;5092613;28;20201;-70
2021/12/27 05:07:37;;;;;;;59.90;26.33;;;-5.70;99.90;;;;;;5093226;28;20201;-71
2021/12/27 05:10:06;;;;;;;63.00;29.80;;;-6.20;99.90;;;;;;5092653;28;20322;-72
2021/12/27 05:12:34;;;;;;;62.33;27.93;;;-6.20;99.90;;;;;;5093179;28;20204;-71
2021/12/27 05:15:03;;;;;;;64.77;29.80;;;-6.20;99.90;;;;;;5092029;28;20218;-71
2021/12/27 05:17:30;;;;;;;62.50;27.97;;;-6.20;99.90;;;;;;5092773;28;20693;-70
2021/12/27 05:19:58;;;;;;;59.43;25.10;;;-6.20;99.90;;;;;;5093309;28;20205;-70
2021/12/27 05:22:25;;;;;;;57.63;23.93;;;-6.20;99.90;;;;;;5092144;28;20209;-70
2021/12/27 05:24:52;;;;;;;48.07;23.80;;;-6.20;99.90;;;;;;5092478;28;20211;-72
2021/12/27 05:27:19;;;;;;;58.10;25.17;;;-6.20;99.90;;;;;;5092155;28;20373;-71
2021/12/27 05:29:48;;;;;;;53.33;25.40;;;-6.30;99.90;;;;;;5092118;28;20320;-71
2021/12/27 05:32:14;;;;;;;57.57;25.27;;;-6.30;99.90;;;;;;5091844;28;20200;-72
2021/12/27 05:34:41;;;;;;;55.63;24.27;;;-6.30;99.90;;;;;;5092579;28;20219;-71
2021/12/27 05:37:08;;;;;;;50.50;23.63;;;-6.30;99.90;;;;;;5092514;28;20718;-71
2021/12/27 05:39:35;;;;;;;56.00;26.07;;;-6.30;99.90;;;;;;5092385;28;20204;-72
2021/12/27 05:42:03;;;;;;;49.20;23.50;;;-6.20;99.90;;;;;;5091820;28;20209;-73
2021/12/27 05:44:30;;;;;;;54.77;23.70;;;-6.30;99.90;;;;;;5091847;28;20286;-70
2021/12/27 05:46:58;;;;;;;54.57;25.07;;;-6.30;99.90;;;;;;5091781;28;20249;-71
2021/12/27 05:49:25;;;;;;;58.73;24.40;;;-6.30;99.90;;;;;;5091543;28;20242;-71
2021/12/27 05:51:52;;;;;;;50.40;23.73;;;-6.30;99.90;;;;;;5091278;28;20213;-71
2021/12/27 05:54:20;;;;;;;53.47;25.47;;;-6.30;99.90;;;;;;5091563;28;20322;-71
2021/12/27 05:56:47;;;;;;;55.43;25.07;;;-6.30;99.90;;;;;;5091466;28;20239;-72
2021/12/27 05:59:15;;;;;;;60.03;25.60;;;-6.20;99.90;;;;;;5091030;28;20291;-71
2021/12/27 06:01:42;;;;;;;58.73;25.87;;;-6.20;99.90;;;;;;5092050;28;20618;-70
2021/12/27 06:04:10;;;;;;;53.73;25.57;;;-6.20;99.90;;;;;;5095210;28;20287;-70
2021/12/27 06:06:37;;;;;;;49.23;23.93;;;-6.20;99.90;;;;;;5096037;28;20292;-70
2021/12/27 06:09:05;;;;;;;49.93;22.00;;;-6.10;99.90;;;;;;5095577;28;20220;-70
2021/12/27 06:11:32;;;;;;;43.23;21.40;;;-6.10;99.90;;;;;;5095406;28;20204;-69
2021/12/27 06:13:59;;;;;;;46.23;22.80;;;-6.00;99.90;;;;;;5095178;28;20205;-70
2021/12/27 06:16:26;;;;;;;49.63;22.90;;;-6.10;99.90;;;;;;5095335;28;20307;-71
2021/12/27 06:18:53;;;;;;;43.10;21.37;;;-6.10;99.90;;;;;;5095753;28;20204;-70
2021/12/27 06:21:21;;;;;;;47.17;21.20;;;-6.10;99.90;;;;;;5095530;28;20231;-71
2021/12/27 06:23:48;;;;;;;55.47;24.17;;;-6.20;99.90;;;;;;5095646;28;20685;-70
2021/12/27 06:26:15;;;;;;;47.00;21.53;;;-6.20;99.90;;;;;;5095680;28;20502;-71
2021/12/27 06:28:42;;;;;;;55.57;23.60;;;-6.20;99.90;;;;;;5087334;28;20331;-72
2021/12/27 06:31:09;;;;;;;53.67;24.37;;;-6.20;99.90;;;;;;5095811;28;20546;-70
2021/12/27 06:33:36;;;;;;;58.10;24.67;;;-6.20;99.90;;;;;;5095489;28;20218;-70
2021/12/27 06:36:04;;;;;;;53.93;23.63;;;-6.20;99.90;;;;;;5095544;28;20200;-70
2021/12/27 06:38:32;;;;;;;49.97;23.13;;;-6.20;99.90;;;;;;5096054;28;20219;-71
2021/12/27 06:41:00;;;;;;;48.83;23.40;;;-6.30;99.90;;;;;;5095327;28;20287;-71
2021/12/27 06:43:28;;;;;;;50.97;24.07;;;-6.30;99.90;;;;;;5096065;28;20219;-71
2021/12/27 06:45:55;;;;;;;47.70;22.87;;;-6.30;99.90;;;;;;5096688;28;20205;-71
2021/12/27 06:48:22;;;;;;;47.53;23.33;;;-6.30;99.90;;;;;;5097303;28;20209;-72
2021/12/27 06:50:49;;;;;;;51.13;23.87;;;-6.30;99.90;;;;;;5097775;28;20220;-70
2021/12/27 06:53:16;;;;;;;50.67;22.27;;;-6.30;99.90;;;;;;5096211;28;20204;-71
2021/12/27 06:55:45;;;;;;;58.60;24.53;;;-6.30;99.90;;;;;;5095352;28;20255;-70
2021/12/27 06:58:12;;;;;;;48.60;22.90;;;-6.30;99.90;;;;;;5095089;28;20325;-71
2021/12/27 07:00:40;;;;;;;48.00;23.63;;;-6.30;99.90;;;;;;5093456;28;20212;-71
2021/12/27 07:03:07;;;;;;;46.43;20.07;;;-6.20;99.90;;;;;;5095046;28;20209;-71
2021/12/27 07:05:34;;;;;;;49.00;23.40;;;-6.20;99.90;;;;;;5094733;28;20236;-71
2021/12/27 07:08:01;;;;;;;43.97;19.47;;;-6.20;99.90;;;;;;5096545;28;20256;-75
2021/12/27 07:10:28;;;;;;;41.50;20.23;;;-6.10;99.90;;;;;;5082293;28;20652;-74
2021/12/27 07:12:57;;;;;;;51.50;20.47;;;-6.00;99.90;;;;;;5095926;28;20201;-70
2021/12/27 07:15:25;;;;;;;47.10;20.70;;;-6.10;99.90;;;;;;5094683;28;20278;-72
2021/12/27 07:17:52;;;;;;;44.27;19.17;;;-6.10;99.90;;;;;;5094765;28;20238;-72
2021/12/27 07:20:19;;;;;;;38.40;18.80;;;-6.10;99.90;;;;;;5092978;28;20201;-74
2021/12/27 07:22:45;;;;;;;47.60;19.70;;;-6.00;99.90;;;;;;5095787;28;20211;-75
2021/12/27 07:25:12;;;;;;;46.70;19.73;;;-6.00;99.90;;;;;;5096004;28;20314;-75
2021/12/27 07:27:39;;;;;;;40.43;18.83;;;-6.10;99.90;;;;;;5094424;28;20228;-75
2021/12/27 07:30:10;;;;;;;45.57;19.37;;;-6.10;99.90;;;;;;5095618;28;20316;-72
2021/12/27 07:32:37;;;;;;;36.60;18.20;;;-6.10;99.90;;;;;;5096446;28;20608;-75
2021/12/27 07:35:06;;;;;;;40.50;20.07;;;-6.10;99.90;;;;;;5096931;28;20283;-73
2021/12/27 07:37:34;;;;;;;43.37;19.77;;;-6.10;99.90;;;;;;5096981;28;20658;-73
2021/12/27 07:40:01;;;;;;;42.27;18.80;;;-6.10;99.90;;;;;;5097367;28;20223;-72
2021/12/27 07:42:28;;;;;;;47.40;19.20;;;-6.10;99.90;;;;;;5096481;28;20196;-72
2021/12/27 07:44:55;;;;;;;44.07;20.63;;;-6.00;99.90;;;;;;5097607;28;20216;-72
2021/12/27 07:47:23;;;;;;;43.00;19.80;;;-6.00;99.90;;;;;;5098363;28;20285;-72
2021/12/27 07:49:50;;;;;;;48.23;21.13;;;-5.90;99.90;;;;;;5092405;28;20224;-70
2021/12/27 07:52:17;;;;;;;45.23;20.13;;;-5.80;99.90;;;;;;5096886;28;20239;-74
2021/12/27 07:54:44;;;;;;;46.43;22.07;;;-5.70;99.90;;;;;;5098039;28;20255;-72
2021/12/27 07:57:11;;;;;;;45.43;20.33;;;-5.60;99.90;;;;;;5098292;28;20219;-73
2021/12/27 07:59:38;;;;;;;44.87;21.10;;;-5.50;99.90;;;;;;5097097;28;20208;-73
2021/12/27 08:02:05;;;;;;;43.73;19.47;;;-5.40;99.90;;;;;;5097097;28;20200;-73
2021/12/27 08:04:34;;;;;;;37.73;19.80;;;-5.30;99.90;;;;;;5078877;28;20236;-71
2021/12/27 08:07:01;;;;;;;48.07;21.13;;;-5.20;99.90;;;;;;5094801;28;20264;-73
2021/12/27 08:09:28;;;;;;;44.00;20.07;;;-5.10;99.90;;;;;;5093549;28;20204;-72
2021/12/27 08:11:55;;;;;;;48.57;20.63;;;-5.00;99.90;;;;;;5093969;28;20296;-71
2021/12/27 08:14:22;;;;;;;38.77;18.07;;;-4.90;99.90;;;;;;5093404;28;20629;-72
2021/12/27 08:16:49;;;;;;;39.77;19.47;;;-4.80;99.90;;;;;;5093951;28;20713;-73
2021/12/27 08:19:16;;;;;;;39.97;19.60;;;-4.80;99.90;;;;;;5087269;28;20198;-74
2021/12/27 08:21:44;;;;;;;47.00;22.13;;;-4.80;99.90;;;;;;5090243;28;20291;-73
2021/12/27 08:24:11;;;;;;;44.73;21.70;;;-4.80;99.90;;;;;;5091010;28;20231;-72
2021/12/27 08:26:39;;;;;;;50.27;22.27;;;-4.80;99.90;;;;;;5089790;28;20291;-73
2021/12/27 08:29:10;;;;;;;48.57;22.03;;;-4.80;99.90;;;;;;5092772;28;20255;-71
2021/12/27 08:31:37;;;;;;;53.50;23.27;;;-4.90;99.90;;;;;;5096160;28;20217;-73
2021/12/27 08:34:04;;;;;;;41.60;21.13;;;-4.80;99.90;;;;;;5094319;28;20200;-70
2021/12/27 08:36:31;;;;;;;45.20;21.60;;;-4.80;99.90;;;;;;5091461;28;20684;-68
2021/12/27 08:38:59;;;;;;;53.80;23.17;;;-4.80;99.90;;;;;;5095183;28;20658;-70
2021/12/27 08:41:27;;;;;;;53.63;23.83;;;-4.70;99.90;;;;;;5096422;28;20292;-69
2021/12/27 08:43:56;;;;;;;49.27;22.80;;;-4.60;99.90;;;;;;5103096;28;20481;-71
2021/12/27 08:46:23;;;;;;;49.07;22.47;;;-4.30;99.90;;;;;;5094186;28;20205;-69
2021/12/27 08:48:50;;;;;;;46.57;22.87;;;-3.40;99.90;;;;;;5094351;28;20213;-71
2021/12/27 08:51:17;;;;;;;44.47;21.40;;;-1.60;99.90;;;;;;5076778;28;20225;-71
2021/12/27 08:53:44;;;;;;;39.47;20.10;;;0.60;99.90;;;;;;5093228;28;20327;-70
2021/12/27 08:56:12;;;;;;;47.27;23.73;;;2.70;99.90;;;;;;5091926;28;20239;-70
2021/12/27 08:58:39;;;;;;;46.03;22.77;;;4.60;96.40;;;;;;5091046;28;20200;-71
2021/12/27 09:01:07;;;;;;;41.03;21.67;;;6.40;92.70;;;;;;5102210;28;20204;-70
2021/12/27 09:03:35;;;;;;;42.27;21.80;;;8.20;74.80;;;;;;5092572;28;20291;-71
2021/12/27 09:06:01;;;;;;;42.77;23.30;;;9.30;61.30;;;;;;5091832;28;20267;-69
2021/12/27 09:08:29;;;;;;;41.57;23.50;;;10.10;55.80;;;;;;5092012;28;20554;-69
2021/12/27 09:10:58;;;;;;;42.90;23.27;;;11.00;52.30;;;;;;5097868;28;20220;-71
2021/12/27 09:13:28;;;;;;;44.23;25.47;;;11.90;49.40;;;;;;5097236;28;20212;-69
2021/12/27 09:15:55;;;;;;;45.37;24.27;;;12.80;46.00;;;;;;5092925;28;20215;-70
2021/12/27 09:18:22;;;;;;;43.23;25.87;;;13.60;44.60;;;;;;5091837;28;20208;-69
2021/12/27 09:20:49;;;;;;;39.10;25.07;;;14.30;42.30;;;;;;5092686;28;20731;-69
2021/12/27 09:23:16;;;;;;;41.10;25.23;;;14.90;40.30;;;;;;5102517;28;20208;-71
2021/12/27 09:25:44;;;;;;;41.03;25.90;;;15.30;38.50;;;;;;5092501;28;20204;-73
2021/12/27 09:28:11;;;;;;;43.37;26.33;;;15.50;36.60;;;;;;5092080;28;20311;-74
2021/12/27 09:30:40;;;;;;;39.67;25.03;;;15.90;35.90;;;;;;5090406;28;20251;-71
2021/12/27 09:33:06;;;;;;;42.93;24.17;;;16.10;34.80;;;;;;5091516;28;20200;-72
2021/12/27 09:35:34;;;;;;;42.33;27.00;;;16.20;33.50;;;;;;5094092;28;20211;-73
2021/12/27 09:38:02;;;;;;;40.83;25.97;;;16.10;32.80;;;;;;5096414;28;20208;-76
2021/12/27 09:40:30;;;;;;;43.73;26.97;;;16.30;33.30;;;;;;5094663;28;20213;-70
2021/12/27 09:42:57;;;;;;;48.77;28.00;;;16.60;32.20;;;;;;5095403;28;20247;-72
2021/12/27 09:45:24;;;;;;;42.17;26.70;;;16.60;31.20;;;;;;5092848;28;20235;-70
2021/12/27 09:47:53;;;;;;;45.57;27.07;;;16.80;31.40;;;;;;5085477;28;20204;-71
2021/12/27 09:50:23;;;;;;;46.53;28.03;;;17.20;31.10;;;;;;5089491;28;20239;-66
2021/12/27 09:52:50;;;;;;;49.30;29.10;;;17.70;30.60;;;;;;5096477;28;20207;-67
2021/12/27 09:55:18;;;;;;;44.60;29.60;;;17.90;30.50;;;;;;5094057;28;20211;-67
2021/12/27 09:57:45;;;;;;;41.47;28.47;;;18.40;29.80;;;;;;5083151;28;20296;-67
2021/12/27 10:00:13;;;;;;;45.30;28.20;;;18.50;29.00;;;;;;5081764;28;20642;-67
2021/12/27 10:02:41;;;;;;;44.40;29.57;;;18.50;29.00;;;;;;5093423;28;20226;-67
2021/12/27 10:05:09;;;;;;;48.27;30.73;;;17.40;26.80;;;;;;5101207;28;20200;-67
2021/12/27 10:07:41;;;;;;;47.40;30.67;;;15.40;26.50;;;;;;5096558;28;20244;-67
2021/12/27 10:10:09;;;;;;;48.50;28.30;;;13.10;27.50;;;;;;5097391;28;20266;-68
2021/12/27 10:12:36;;;;;;;46.30;26.87;;;11.00;28.90;;;;;;5096001;28;20989;-67
2021/12/27 10:15:06;;;;;;;41.40;25.67;;;10.50;35.40;;;;;;5096043;28;20204;-66
2021/12/27 10:17:37;;;;;;;45.30;25.80;;;11.40;35.60;;;;;;5095960;28;20232;-66
2021/12/27 10:20:13;;;;;;;43.63;26.77;;;13.10;34.30;;;;;;5093563;28;20250;-66
2021/12/27 10:22:41;;;;;;;41.93;26.47;;;14.60;32.20;;;;;;5101355;28;20200;-67
2021/12/27 10:25:15;;;;;;;40.63;24.83;;;16.00;31.30;;;;;;5094788;28;20204;-67
2021/12/27 10:27:42;;;;;;;45.73;26.80;;;17.10;29.70;;;;;;5091282;28;20720;-67
2021/12/27 10:30:13;;;;;;;39.70;25.80;;;18.10;29.20;;;;;;5093890;28;20208;-67
2021/12/27 10:32:40;;;;;;;41.77;27.13;;;18.60;28.10;;;;;;5094619;28;20196;-71
2021/12/27 10:35:10;;;;;;;42.77;27.60;;;18.70;27.30;;;;;;5089091;28;20254;-69
2021/12/27 10:37:39;;;;;;;44.93;29.17;;;18.90;27.60;;;;;;5094586;28;20215;-67
2021/12/27 10:40:08;;;;;;;45.87;27.90;;;19.00;27.20;;;;;;5093193;28;20205;-68
2021/12/27 10:42:38;;;;;;;45.50;30.23;;;19.10;27.10;;;;;;5093484;28;20239;-68
2021/12/27 10:45:07;;;;;;;52.63;33.10;;;19.20;26.70;;;;;;5091725;28;20269;-67
2021/12/27 10:47:40;;;;;;;48.57;31.33;;;19.00;26.70;;;;;;5094658;28;20211;-69
2021/12/27 10:50:11;;;;;;;48.37;31.60;;;18.80;26.90;;;;;;5086449;28;20584;-71
2021/12/27 10:52:44;;;;;;;46.67;30.10;;;18.90;27.80;;;;;;5095650;28;20563;-71
2021/12/27 10:55:11;;;;;;;47.13;30.00;;;19.30;27.30;;;;;;5084937;28;20288;-68
2021/12/27 10:57:38;;;;;;;45.83;29.00;;;19.60;26.70;;;;;;5092526;28;20224;-71
2021/12/27 11:00:21;;;;;;;47.40;29.97;;;19.50;26.50;;;;;;5099246;28;20216;-69
2021/12/27 11:02:48;;;;;;;44.37;28.60;;;19.00;26.30;;;;;;5088228;28;20246;-70
2021/12/27 11:05:17;;;;;;;46.33;29.63;;;18.90;26.90;;;;;;5099617;28;20213;-71
2021/12/27 11:07:45;;;;;;;52.67;31.50;;;19.00;27.00;;;;;;5096687;28;20213;-71
2021/12/27 11:10:12;;;;;;;45.23;29.77;;;19.10;27.00;;;;;;5098368;28;20212;-72
2021/12/27 11:12:40;;;;;;;46.77;30.27;;;19.30;26.90;;;;;;5097092;28;20288;-71
2021/12/27 11:15:10;;;;;;;46.90;29.07;;;19.50;26.50;;;;;;5096969;28;20208;-69
2021/12/27 11:17:38;;;;;;;40.30;27.63;;;19.40;26.30;;;;;;5096986;28;20222;-71
2021/12/27 11:20:08;;;;;;;45.50;27.83;;;19.20;26.50;;;;;;5096477;28;20208;-72
2021/12/27 11:22:37;;;;;;;43.43;27.30;;;19.10;26.40;;;;;;5096178;28;20201;-72
2021/12/27 11:25:07;;;;;;;44.10;27.93;;;19.00;26.70;;;;;;5095394;28;20210;-70
2021/12/27 11:27:36;;;;;;;40.33;26.03;;;19.00;26.70;;;;;;5091461;28;20243;-72
2021/12/27 11:30:11;;;;;;;39.37;24.20;;;18.80;26.20;;;;;;5099130;28;20268;-74
2021/12/27 11:32:38;;;;;;;38.47;23.93;;;18.60;26.70;;;;;;5093772;28;20699;-72
2021/12/27 11:35:11;;;;;;;37.10;23.63;;;18.60;26.60;;;;;;5090753;28;20205;-72
2021/12/27 11:37:38;;;;;;;38.67;24.13;;;18.60;27.70;;;;;;5096877;28;20212;-71
2021/12/27 11:40:10;;;;;;;37.13;23.30;;;18.00;25.90;;;;;;5087157;28;20443;-70
2021/12/27 11:42:54;;;;;;;38.43;23.37;;;15.80;25.50;;;;;;5094431;28;20260;-69
2021/12/27 11:45:42;;;;;;;39.53;23.07;;;12.90;27.10;;;;;;5092893;28;20225;-71
2021/12/27 11:48:11;;;;;;;33.97;19.73;;;10.00;29.10;;;;;;5089097;28;20618;-70
2021/12/27 11:51:09;;;;;;;35.10;18.33;;;7.90;32.00;;;;;;5096732;28;20211;-70
2021/12/27 11:53:42;;;;;;;40.53;18.67;;;5.80;35.00;;;;;;5097682;28;20244;-70
2021/12/27 11:56:16;;;;;;;35.07;17.03;;;4.20;37.80;;;;;;5094341;28;20307;-72
2021/12/27 11:58:44;;;;;;;31.70;15.63;;;2.80;40.30;;;;;;5096533;28;20306;-70
2021/12/27 12:01:36;;;;;;;35.43;16.43;;;1.80;42.30;;;;;;5098386;28;20226;-72
2021/12/27 12:04:03;;;;;;;33.70;15.27;;;0.90;44.10;;;;;;5094287;28;20205;-72
2021/12/27 12:06:38;;;;;;;32.63;16.03;;;0.30;45.80;;;;;;5092937;28;20206;-70
2021/12/27 12:09:17;;;;;;;32.90;16.77;;;-0.20;47.30;;;;;;5086885;28;20214;-67
2021/12/27 12:11:47;;;;;;;30.43;15.13;;;-0.60;49.10;;;;;;5092136;28;20212;-69
2021/12/27 12:14:25;;;;;;;33.00;15.03;;;-0.90;49.80;;;;;;5090620;28;20205;-69
2021/12/27 12:16:52;;;;;;;29.13;13.17;;;-1.30;50.90;;;;;;5093709;28;20212;-70
2021/12/27 12:19:44;;;;;;;33.30;15.30;;;-1.60;51.60;;;;;;5094840;28;20287;-68
2021/12/27 12:22:34;;;;;;;30.53;15.93;;;-1.80;52.30;;;;;;5096004;28;20313;-69
2021/12/27 12:25:17;;;;;;;29.87;14.30;;;-2.10;53.30;;;;;;5086797;28;20587;-69
2021/12/27 12:27:54;;;;;;;30.43;14.80;;;-2.30;54.20;;;;;;5084412;28;20286;-70
2021/12/27 12:30:22;;;;;;;30.47;14.73;;;-2.40;54.80;;;;;;5094939;28;20228;-69
2021/12/27 12:33:00;;;;;;;29.60;12.97;;;-2.60;55.50;;;;;;5092285;28;20232;-70
2021/12/27 12:35:34;;;;;;;29.50;13.77;;;-2.70;56.00;;;;;;5094798;28;20260;-67